createdAt,value
2017-06-21T00:00:23.237Z,0
2017-06-21T00:02:55.533Z,0
2017-06-21T00:06:55.911Z,0
2017-06-21T00:09:20.659Z,0
2017-06-21T00:11:45.339Z,0
2017-06-21T00:14:25.714Z,0
2017-06-21T00:16:51.329Z,0
2017-06-21T00:19:16.239Z,0
2017-06-21T00:21:40.932Z,0
2017-06-21T00:24:03.840Z,0
2017-06-21T00:26:20.105Z,0
2017-06-21T00:28:46.716Z,0
2017-06-21T00:31:02.924Z,0
2017-06-21T00:33:19.057Z,0
2017-06-21T00:35:43.736Z,0
2017-06-21T00:38:08.441Z,0
2017-06-21T00:40:33.113Z,0
2017-06-21T00:44:59.239Z,0
2017-06-21T00:47:30.610Z,0
2017-06-21T00:49:55.294Z,0
2017-06-21T00:52:20.004Z,0
2017-06-21T00:54:44.570Z,0
2017-06-21T00:57:11.232Z,0
2017-06-21T00:59:43.605Z,0
2017-06-21T01:02:09.232Z,0
2017-06-21T01:04:35.870Z,0
2017-06-21T01:06:54.043Z,0
2017-06-21T01:09:18.701Z,0
2017-06-21T01:11:44.309Z,0
2017-06-21T01:14:08.904Z,0
2017-06-21T01:16:42.119Z,0
2017-06-21T01:19:06.797Z,0
2017-06-21T01:23:34.455Z,0
2017-06-21T01:25:52.641Z,0
2017-06-21T01:28:17.222Z,0
2017-06-21T01:30:41.921Z,0
2017-06-21T01:33:14.311Z,0
2017-06-21T01:35:39.003Z,0
2017-06-21T01:38:04.718Z,0
2017-06-21T01:40:37.313Z,0
2017-06-21T01:43:09.778Z,0
2017-06-21T01:45:51.261Z,0
2017-06-21T01:48:16.876Z,0
2017-06-21T01:50:43.440Z,0
2017-06-21T01:53:08.022Z,0
2017-06-21T01:55:24.145Z,0
2017-06-21T01:57:49.717Z,0
2017-06-21T02:00:15.343Z,0
2017-06-21T02:02:46.792Z,0
2017-06-21T02:05:11.386Z,0
2017-06-21T02:07:43.776Z,0
2017-06-21T02:10:17.257Z,0
2017-06-21T02:12:41.861Z,0
2017-06-21T02:15:06.354Z,0
2017-06-21T02:17:46.818Z,0
2017-06-21T02:20:12.423Z,0
2017-06-21T02:22:53.825Z,0
2017-06-21T02:25:33.274Z,0
2017-06-21T02:28:05.756Z,0
2017-06-21T02:30:36.782Z,0
2017-06-21T02:33:03.317Z,0
2017-06-21T02:37:40.423Z,0
2017-06-21T02:40:05.943Z,0
2017-06-21T02:42:37.294Z,0
2017-06-21T02:45:17.753Z,0
2017-06-21T02:47:33.783Z,0
2017-06-21T02:49:58.329Z,0
2017-06-21T02:52:14.331Z,0
2017-06-21T02:54:30.319Z,0
2017-06-21T02:57:01.779Z,0
2017-06-21T02:59:25.792Z,0
2017-06-21T03:01:41.743Z,0
2017-06-21T03:04:06.231Z,0
2017-06-21T03:06:37.282Z,0
2017-06-21T03:11:11.805Z,0
2017-06-21T03:13:37.333Z,0
2017-06-21T03:16:08.676Z,0
2017-06-21T03:18:33.158Z,0
2017-06-21T03:20:57.662Z,0
2017-06-21T03:23:30.648Z,0
2017-06-21T03:27:57.667Z,0
2017-06-21T03:30:21.385Z,5
2017-06-21T03:32:46.785Z,5
2017-06-21T03:35:11.171Z,5
2017-06-21T03:37:35.579Z,5
2017-06-21T03:40:06.932Z,5
2017-06-21T03:42:31.338Z,10
2017-06-21T03:44:57.771Z,10
2017-06-21T03:47:36.897Z,10
2017-06-21T03:50:03.346Z,15
2017-06-21T03:52:27.824Z,15
2017-06-21T03:55:08.936Z,15
2017-06-21T03:57:40.855Z,20
2017-06-21T04:00:06.286Z,20
2017-06-21T04:02:38.348Z,25
2017-06-21T04:05:08.961Z,25
2017-06-21T04:07:34.444Z,30
2017-06-21T04:09:59.936Z,30
2017-06-21T04:12:24.405Z,35
2017-06-21T04:14:49.956Z,35
2017-06-21T04:17:14.420Z,40
2017-06-21T04:19:46.428Z,45
2017-06-21T04:22:10.920Z,55
2017-06-21T04:24:35.524Z,65
2017-06-21T04:27:00.148Z,65
2017-06-21T04:29:24.863Z,70
2017-06-21T04:31:48.085Z,75
2017-06-21T04:34:13.101Z,80
2017-06-21T04:36:45.092Z,90
2017-06-21T04:39:11.250Z,95
2017-06-21T04:41:37.528Z,100
2017-06-21T04:44:02.862Z,105
2017-06-21T04:46:19.782Z,105
2017-06-21T04:48:45.342Z,115
2017-06-21T04:51:11.025Z,120
2017-06-21T04:53:36.684Z,110
2017-06-21T04:56:04.497Z,125
2017-06-21T04:58:31.378Z,130
2017-06-21T05:00:59.269Z,135
2017-06-21T05:03:26.248Z,130
2017-06-21T05:05:58.934Z,125
2017-06-21T05:08:25.995Z,145
2017-06-21T05:12:27.919Z,125
2017-06-21T05:14:53.985Z,135
2017-06-21T05:18:55.786Z,155
2017-06-21T05:22:49.008Z,170
2017-06-21T05:25:16.003Z,160
2017-06-21T05:27:49.828Z,160
2017-06-21T05:30:15.942Z,160
2017-06-21T05:32:48.866Z,175
2017-06-21T05:35:16.930Z,190
2017-06-21T05:39:35.119Z,195
2017-06-21T05:41:54.695Z,230
2017-06-21T05:44:35.554Z,210
2017-06-21T05:47:01.778Z,260
2017-06-21T05:49:27.057Z,270
2017-06-21T05:51:53.361Z,280
2017-06-21T05:54:19.697Z,360
2017-06-21T05:56:37.450Z,625
2017-06-21T05:59:04.335Z,465
2017-06-21T06:01:30.343Z,515
2017-06-21T06:03:56.633Z,840
2017-06-21T06:06:22.839Z,1070
2017-06-21T06:08:40.416Z,995
2017-06-21T06:13:08.552Z,1050
2017-06-21T06:15:34.823Z,930
2017-06-21T06:18:01.045Z,820
2017-06-21T06:20:27.392Z,775
2017-06-21T06:22:45.188Z,735
2017-06-21T06:25:02.897Z,900
2017-06-21T06:27:29.207Z,975
2017-06-21T06:29:55.555Z,820
2017-06-21T06:32:21.905Z,430
2017-06-21T06:34:48.346Z,400
2017-06-21T06:37:14.790Z,430
2017-06-21T06:39:32.661Z,420
2017-06-21T06:41:59.146Z,360
2017-06-21T06:44:25.578Z,340
2017-06-21T06:48:53.919Z,385
2017-06-21T06:51:20.242Z,330
2017-06-21T06:53:46.489Z,405
2017-06-21T06:56:12.635Z,475
2017-06-21T06:58:38.773Z,485
2017-06-21T07:02:58.162Z,415
2017-06-21T07:07:17.428Z,360
2017-06-21T07:09:34.819Z,400
2017-06-21T07:12:00.739Z,365
2017-06-21T07:14:26.623Z,445
2017-06-21T07:16:43.941Z,515
2017-06-21T07:19:09.836Z,605
2017-06-21T07:21:27.250Z,645
2017-06-21T07:23:53.260Z,730
2017-06-21T07:28:21.338Z,700
2017-06-21T07:30:47.478Z,725
2017-06-21T07:33:13.630Z,770
2017-06-21T07:35:39.765Z,740
2017-06-21T07:38:05.896Z,715
2017-06-21T07:40:32.032Z,705
2017-06-21T07:42:58.202Z,720
2017-06-21T07:45:24.377Z,700
2017-06-21T07:49:52.504Z,625
2017-06-21T07:52:10.174Z,495
2017-06-21T07:54:27.825Z,515
2017-06-21T07:56:54.017Z,505
2017-06-21T07:59:11.677Z,490
2017-06-21T08:01:37.887Z,470
2017-06-21T08:04:04.124Z,440
2017-06-21T08:06:30.354Z,435
2017-06-21T08:08:56.591Z,425
2017-06-21T08:11:22.893Z,415
2017-06-21T08:13:40.640Z,405
2017-06-21T08:16:07.006Z,395
2017-06-21T08:18:24.799Z,390
2017-06-21T08:20:51.207Z,395
2017-06-21T08:23:17.620Z,385
2017-06-21T08:25:44.030Z,380
2017-06-21T08:30:03.976Z,375
2017-06-21T08:32:30.461Z,370
2017-06-21T08:34:56.888Z,370
2017-06-21T08:41:27.376Z,365
2017-06-21T08:43:53.829Z,365
2017-06-21T08:46:20.291Z,375
2017-06-21T08:48:46.733Z,400
2017-06-21T08:51:13.164Z,395
2017-06-21T08:53:39.645Z,380
2017-06-21T08:56:06.198Z,380
2017-06-21T08:58:24.142Z,380
2017-06-21T09:02:52.759Z,380
2017-06-21T09:05:19.367Z,370
2017-06-21T09:07:45.984Z,365
2017-06-21T09:10:12.599Z,365
2017-06-21T09:12:30.635Z,360
2017-06-21T09:14:57.286Z,355
2017-06-21T09:17:23.885Z,350
2017-06-21T09:19:50.493Z,345
2017-06-21T09:22:17.086Z,340
2017-06-21T09:24:43.657Z,325
2017-06-21T09:27:01.649Z,320
2017-06-21T09:31:21.610Z,300
2017-06-21T09:33:48.130Z,290
2017-06-21T09:36:06.046Z,290
2017-06-21T09:38:23.918Z,280
2017-06-21T09:40:41.781Z,280
2017-06-21T09:42:51.064Z,275
2017-06-21T09:45:08.908Z,270
2017-06-21T09:47:35.319Z,265
2017-06-21T09:50:01.757Z,260
2017-06-21T09:52:28.108Z,255
2017-06-21T09:54:54.516Z,250
2017-06-21T09:59:14.335Z,245
2017-06-21T10:01:40.741Z,235
2017-06-21T10:04:07.127Z,240
2017-06-21T10:06:33.506Z,230
2017-06-21T10:08:51.285Z,220
2017-06-21T10:11:17.609Z,210
2017-06-21T10:13:43.899Z,205
2017-06-21T10:16:10.122Z,200
2017-06-21T10:18:36.290Z,195
2017-06-21T10:21:02.422Z,190
2017-06-21T10:23:28.559Z,190
2017-06-21T10:25:54.614Z,185
2017-06-21T10:28:20.649Z,180
2017-06-21T10:30:38.120Z,180
2017-06-21T10:33:04.140Z,180
2017-06-21T10:35:30.114Z,175
2017-06-21T10:37:56.059Z,175
2017-06-21T10:40:04.844Z,175
2017-06-21T10:42:30.697Z,170
2017-06-21T10:44:56.568Z,170
2017-06-21T10:47:22.425Z,165
2017-06-21T10:49:48.278Z,165
2017-06-21T10:52:14.103Z,165
2017-06-21T10:54:32.365Z,160
2017-06-21T10:56:49.598Z,160
2017-06-21T10:59:15.356Z,160
2017-06-21T11:01:41.131Z,155
2017-06-21T11:04:06.888Z,155
2017-06-21T11:06:24.140Z,150
2017-06-21T11:08:49.860Z,145
2017-06-21T11:11:07.083Z,145
2017-06-21T11:13:32.800Z,140
2017-06-21T11:15:58.492Z,140
2017-06-21T11:18:24.166Z,135
2017-06-21T11:20:49.864Z,135
2017-06-21T11:23:15.560Z,130
2017-06-21T11:25:41.198Z,125
2017-06-21T11:27:58.326Z,125
2017-06-21T11:30:23.959Z,125
2017-06-21T11:32:49.597Z,120
2017-06-21T11:35:06.705Z,120
2017-06-21T11:39:25.572Z,120
2017-06-21T11:41:51.219Z,120
2017-06-21T11:44:16.851Z,115
2017-06-21T11:46:42.450Z,115
2017-06-21T11:49:08.030Z,115
2017-06-21T11:51:33.615Z,115
2017-06-21T11:53:59.223Z,115
2017-06-21T11:56:24.817Z,115
2017-06-21T11:58:41.872Z,115
2017-06-21T12:01:07.466Z,110
2017-06-21T12:03:33.101Z,110
2017-06-21T12:08:09.117Z,105
2017-06-21T12:10:34.694Z,105
2017-06-21T12:13:00.217Z,105
2017-06-21T12:15:25.796Z,105
2017-06-21T12:17:51.368Z,105
2017-06-21T12:20:16.965Z,105
2017-06-21T12:24:18.491Z,105
2017-06-21T12:26:44.120Z,100
2017-06-21T12:29:09.722Z,100
2017-06-21T12:31:35.324Z,105
2017-06-21T12:34:00.890Z,100
2017-06-21T12:36:26.457Z,100
2017-06-21T12:40:37.269Z,100
2017-06-21T12:43:02.891Z,95
2017-06-21T12:45:28.495Z,95
2017-06-21T12:47:54.102Z,95
2017-06-21T12:50:11.103Z,95
2017-06-21T12:54:29.917Z,95
2017-06-21T12:56:55.528Z,95
2017-06-21T12:59:12.561Z,95
2017-06-21T13:01:29.605Z,90
2017-06-21T13:03:55.209Z,95
2017-06-21T13:06:20.767Z,95
2017-06-21T13:08:46.304Z,95
2017-06-21T13:11:11.827Z,95
2017-06-21T13:13:37.401Z,95
2017-06-21T13:16:02.912Z,90
2017-06-21T13:20:21.685Z,95
2017-06-21T13:22:47.228Z,95
2017-06-21T13:25:12.742Z,95
2017-06-21T13:27:29.713Z,95
2017-06-21T13:29:55.275Z,95
2017-06-21T13:32:20.816Z,95
2017-06-21T13:34:46.329Z,95
2017-06-21T13:37:11.888Z,95
2017-06-21T13:39:37.431Z,95
2017-06-21T13:42:02.963Z,95
2017-06-21T13:44:20.016Z,95
2017-06-21T13:46:45.577Z,100
2017-06-21T13:49:11.096Z,100
2017-06-21T13:51:36.620Z,100
2017-06-21T13:56:12.567Z,105
2017-06-21T13:58:38.116Z,105
2017-06-21T14:00:55.144Z,105
2017-06-21T14:03:12.169Z,100
2017-06-21T14:05:37.733Z,95
2017-06-21T14:08:03.298Z,90
2017-06-21T14:10:28.886Z,90
2017-06-21T14:12:45.943Z,85
2017-06-21T14:15:11.487Z,85
2017-06-21T14:17:28.499Z,85
2017-06-21T14:19:54.075Z,85
2017-06-21T14:22:11.059Z,85
2017-06-21T14:24:36.612Z,85
2017-06-21T14:27:02.165Z,85
2017-06-21T14:29:27.693Z,90
2017-06-21T14:31:44.725Z,90
2017-06-21T14:34:01.713Z,90
2017-06-21T14:36:27.218Z,90
2017-06-21T14:38:52.716Z,85
2017-06-21T14:41:18.219Z,85
2017-06-21T14:45:36.957Z,90
2017-06-21T14:48:02.501Z,85
2017-06-21T14:50:27.997Z,85
2017-06-21T14:52:53.530Z,85
2017-06-21T14:55:19.035Z,85
2017-06-21T14:57:44.569Z,80
2017-06-21T15:00:10.096Z,80
2017-06-21T15:02:35.621Z,80
2017-06-21T15:04:52.652Z,80
2017-06-21T15:07:18.184Z,80
2017-06-21T15:09:43.806Z,80
2017-06-21T15:12:09.303Z,80
2017-06-21T15:14:26.478Z,80
2017-06-21T15:16:34.881Z,80
2017-06-21T15:19:00.366Z,80
2017-06-21T15:21:25.859Z,80
2017-06-21T15:23:51.357Z,75
2017-06-21T15:26:16.821Z,75
2017-06-21T15:28:42.327Z,75
2017-06-21T15:30:50.790Z,75
2017-06-21T15:33:17.395Z,75
2017-06-21T15:35:42.910Z,75
2017-06-21T15:38:08.516Z,75
2017-06-21T15:40:34.048Z,70
2017-06-21T15:42:59.649Z,70
2017-06-21T15:45:25.196Z,70
2017-06-21T15:47:50.788Z,70
2017-06-21T15:50:17.386Z,70
2017-06-21T15:54:53.310Z,70
2017-06-21T15:57:18.929Z,75
2017-06-21T15:59:35.912Z,75
2017-06-21T16:02:01.474Z,75
2017-06-21T16:06:46.028Z,75
2017-06-21T16:09:11.527Z,70
2017-06-21T16:11:37.155Z,75
2017-06-21T16:14:02.678Z,75
2017-06-21T16:16:28.556Z,70
2017-06-21T16:20:48.861Z,60
2017-06-21T16:23:15.342Z,70
2017-06-21T16:25:40.920Z,60
2017-06-21T16:30:12.566Z,70
2017-06-21T16:32:39.078Z,65
2017-06-21T16:35:04.596Z,65
2017-06-21T16:37:25.119Z,65
2017-06-21T16:39:50.695Z,60
2017-06-21T16:42:16.104Z,65
2017-06-21T16:44:50.548Z,60
2017-06-21T16:47:16.059Z,60
2017-06-21T16:49:48.033Z,35
2017-06-21T16:52:13.432Z,40
2017-06-21T16:56:41.060Z,55
2017-06-21T16:59:07.559Z,40
2017-06-21T17:01:24.461Z,40
2017-06-21T17:03:42.370Z,45
2017-06-21T17:06:07.830Z,40
2017-06-21T17:08:33.488Z,50
2017-06-21T17:10:58.926Z,65
2017-06-21T17:15:28.599Z,65
2017-06-21T17:17:54.054Z,65
2017-06-21T17:20:19.487Z,65
2017-06-21T17:24:38.103Z,60
2017-06-21T17:27:03.581Z,40
2017-06-21T17:29:20.470Z,60
2017-06-21T17:31:45.912Z,60
2017-06-21T17:34:11.325Z,60
2017-06-21T17:36:36.727Z,55
2017-06-21T17:39:02.154Z,55
2017-06-21T17:41:19.086Z,50
2017-06-21T17:45:54.833Z,50
2017-06-21T17:48:15.054Z,45
2017-06-21T17:50:40.456Z,45
2017-06-21T17:53:05.884Z,45
2017-06-21T17:55:31.276Z,40
2017-06-21T17:57:57.684Z,40
2017-06-21T18:00:23.108Z,40
2017-06-21T18:02:40.023Z,35
2017-06-21T18:05:05.332Z,35
2017-06-21T18:07:30.558Z,35
2017-06-21T18:09:55.840Z,35
2017-06-21T18:12:21.134Z,30
2017-06-21T18:14:46.456Z,30
2017-06-21T18:17:03.263Z,30
2017-06-21T18:19:28.583Z,30
2017-06-21T18:21:55.924Z,25
2017-06-21T18:24:28.039Z,25
2017-06-21T18:26:53.324Z,25
2017-06-21T18:31:12.743Z,20
2017-06-21T18:33:39.043Z,20
2017-06-21T18:36:04.347Z,20
2017-06-21T18:38:37.562Z,20
2017-06-21T18:41:02.839Z,20
2017-06-21T18:43:28.160Z,15
2017-06-21T18:45:54.366Z,15
2017-06-21T18:50:12.752Z,15
2017-06-21T18:54:49.762Z,10
2017-06-21T18:57:15.046Z,10
2017-06-21T18:59:40.241Z,10
2017-06-21T19:02:05.397Z,10
2017-06-21T19:04:31.592Z,10
2017-06-21T19:06:56.810Z,10
2017-06-21T19:09:22.018Z,5
2017-06-21T19:11:48.136Z,5
2017-06-21T19:14:04.901Z,5
2017-06-21T19:16:30.054Z,5
2017-06-21T19:18:55.251Z,5
2017-06-21T19:23:22.831Z,0
2017-06-21T19:25:48.041Z,0
2017-06-21T19:28:13.146Z,0
2017-06-21T19:30:38.239Z,0
2017-06-21T19:35:15.522Z,0
2017-06-21T19:37:40.682Z,0
2017-06-21T19:39:57.501Z,0
2017-06-21T19:42:22.678Z,0
2017-06-21T19:44:39.604Z,0
2017-06-21T19:47:04.806Z,0
2017-06-21T19:49:29.904Z,0
2017-06-21T19:51:46.506Z,0
2017-06-21T19:54:11.596Z,0
2017-06-21T19:56:37.720Z,0
2017-06-21T19:59:02.852Z,0
2017-06-21T20:01:28.999Z,0
2017-06-21T20:03:54.075Z,0
2017-06-21T20:06:19.185Z,0
2017-06-21T20:08:44.363Z,0
2017-06-21T20:11:09.406Z,0
2017-06-21T20:17:12.094Z,0
2017-06-21T20:19:38.262Z,0
2017-06-21T20:22:01.411Z,0
2017-06-21T20:28:38.969Z,0
2017-06-21T20:30:55.541Z,0
2017-06-21T20:33:21.565Z,0
2017-06-21T20:35:46.662Z,0
2017-06-21T20:38:12.694Z,0
2017-06-21T20:40:37.801Z,0
2017-06-21T20:43:09.447Z,0
2017-06-21T20:45:34.498Z,0
2017-06-21T20:47:59.548Z,0
2017-06-21T20:50:25.590Z,0
2017-06-21T20:52:44.170Z,0
2017-06-21T20:55:09.141Z,0
2017-06-21T20:57:34.164Z,0
2017-06-21T20:59:51.698Z,0
2017-06-21T21:02:16.675Z,0
2017-06-21T21:06:51.858Z,0
2017-06-21T21:09:16.875Z,0
2017-06-21T21:11:41.802Z,0
2017-06-21T21:13:58.247Z,0
2017-06-21T21:16:23.272Z,0
2017-06-21T21:18:48.306Z,0
2017-06-21T21:21:13.270Z,0
2017-06-21T21:23:38.263Z,0
2017-06-21T21:26:03.346Z,0
2017-06-21T21:28:19.861Z,0
2017-06-21T21:30:44.776Z,0
2017-06-21T21:33:10.780Z,0
2017-06-21T21:35:35.785Z,0
2017-06-21T21:37:52.187Z,0
2017-06-21T21:40:17.087Z,0
2017-06-21T21:42:41.996Z,0
2017-06-21T21:45:06.879Z,0
2017-06-21T21:49:25.388Z,0
2017-06-21T21:51:50.354Z,0
2017-06-21T21:56:17.311Z,0
2017-06-21T21:58:42.199Z,0
2017-06-21T22:00:58.618Z,0
2017-06-21T22:03:23.499Z,0
2017-06-21T22:05:48.411Z,0
2017-06-21T22:08:13.219Z,0
2017-06-21T22:10:38.121Z,0
2017-06-21T22:12:54.522Z,0
2017-06-21T22:15:20.317Z,0
2017-06-21T22:17:45.126Z,0
2017-06-21T22:22:20.746Z,0
2017-06-21T22:24:45.591Z,0
2017-06-21T22:27:10.377Z,0
2017-06-21T22:31:37.267Z,0
2017-06-21T22:34:02.045Z,0
2017-06-21T22:36:26.829Z,0
2017-06-21T22:38:51.575Z,0
2017-06-21T22:41:07.847Z,0
2017-06-21T22:45:43.226Z,0
2017-06-21T22:48:07.982Z,0
2017-06-21T22:50:32.680Z,0
2017-06-21T22:52:57.498Z,0
2017-06-21T22:55:22.291Z,0
2017-06-21T22:57:38.505Z,0
2017-06-21T23:00:03.298Z,0
2017-06-21T23:02:28.058Z,0
2017-06-21T23:06:54.830Z,0
2017-06-21T23:09:19.528Z,0
2017-06-21T23:13:38.962Z,0
2017-06-21T23:16:03.725Z,0
2017-06-21T23:18:28.446Z,0
2017-06-21T23:20:54.131Z,0
2017-06-21T23:23:18.826Z,0
2017-06-21T23:25:43.513Z,0
2017-06-21T23:28:08.229Z,0
2017-06-21T23:30:33.031Z,0
2017-06-21T23:32:57.718Z,0
2017-06-21T23:35:22.412Z,0
2017-06-21T23:37:47.080Z,0
2017-06-21T23:40:11.790Z,0
2017-06-21T23:42:36.484Z,0
2017-06-21T23:45:01.090Z,0
2017-06-21T23:47:25.828Z,0
2017-06-21T23:49:42.124Z,0
2017-06-21T23:51:58.423Z,0
2017-06-21T23:54:23.093Z,0
2017-06-21T23:58:49.812Z,0
